sensor_id;sensor_type;location;lat;lon;timestamp;temperature;humidity
32293;DHT22;43233;48.608;8.838;2023-05-14T00:01:12;11.70;85.80
32293;DHT22;43233;48.608;8.838;2023-05-14T00:03:37;11.70;85.80
32293;DHT22;43233;48.608;8.838;2023-05-14T00:06:05;11.70;85.80
32293;DHT22;43233;48.608;8.838;2023-05-14T00:08:31;11.70;85.60
32293;DHT22;43233;48.608;8.838;2023-05-14T00:10:57;11.70;85.70
32293;DHT22;43233;48.608;8.838;2023-05-14T00:13:23;11.70;85.70
32293;DHT22;43233;48.608;8.838;2023-05-14T00:15:49;11.70;85.60
32293;DHT22;43233;48.608;8.838;2023-05-14T00:18:14;11.70;85.70
32293;DHT22;43233;48.608;8.838;2023-05-14T00:20:40;11.70;85.60
32293;DHT22;43233;48.608;8.838;2023-05-14T00:23:06;11.70;85.80
32293;DHT22;43233;48.608;8.838;2023-05-14T00:25:31;11.70;85.80
32293;DHT22;43233;48.608;8.838;2023-05-14T00:27:57;11.70;85.70
32293;DHT22;43233;48.608;8.838;2023-05-14T00:30:22;11.70;85.60
32293;DHT22;43233;48.608;8.838;2023-05-14T00:32:48;11.60;85.60
32293;DHT22;43233;48.608;8.838;2023-05-14T00:35:14;11.70;85.80
32293;DHT22;43233;48.608;8.838;2023-05-14T00:37:40;11.60;85.40
32293;DHT22;43233;48.608;8.838;2023-05-14T00:40:07;11.60;85.30
32293;DHT22;43233;48.608;8.838;2023-05-14T00:42:33;11.60;85.40
32293;DHT22;43233;48.608;8.838;2023-05-14T00:44:59;11.60;85.40
32293;DHT22;43233;48.608;8.838;2023-05-14T00:47:25;11.60;85.10
32293;DHT22;43233;48.608;8.838;2023-05-14T00:49:50;11.60;85.10
32293;DHT22;43233;48.608;8.838;2023-05-14T00:52:17;11.60;85.10
32293;DHT22;43233;48.608;8.838;2023-05-14T00:54:44;11.60;85.10
32293;DHT22;43233;48.608;8.838;2023-05-14T00:57:11;11.60;84.90
32293;DHT22;43233;48.608;8.838;2023-05-14T00:59:36;11.60;84.80
32293;DHT22;43233;48.608;8.838;2023-05-14T01:02:05;11.70;84.90
32293;DHT22;43233;48.608;8.838;2023-05-14T01:04:30;11.70;84.80
32293;DHT22;43233;48.608;8.838;2023-05-14T01:10:10;11.70;84.70
32293;DHT22;43233;48.608;8.838;2023-05-14T01:15:30;11.60;84.60
32293;DHT22;43233;48.608;8.838;2023-05-14T01:18:03;11.60;84.70
32293;DHT22;43233;48.608;8.838;2023-05-14T01:20:29;11.60;84.70
32293;DHT22;43233;48.608;8.838;2023-05-14T01:22:55;11.70;84.70
32293;DHT22;43233;48.608;8.838;2023-05-14T01:25:20;11.70;84.70
32293;DHT22;43233;48.608;8.838;2023-05-14T01:30:25;11.70;84.50
32293;DHT22;43233;48.608;8.838;2023-05-14T01:32:59;11.70;84.50
32293;DHT22;43233;48.608;8.838;2023-05-14T01:35:28;11.70;84.50
32293;DHT22;43233;48.608;8.838;2023-05-14T01:37:56;11.70;84.50
32293;DHT22;43233;48.608;8.838;2023-05-14T01:40:23;11.70;84.40
32293;DHT22;43233;48.608;8.838;2023-05-14T01:42:50;11.60;84.30
32293;DHT22;43233;48.608;8.838;2023-05-14T01:45:22;11.60;84.40
32293;DHT22;43233;48.608;8.838;2023-05-14T01:47:48;11.60;84.30
32293;DHT22;43233;48.608;8.838;2023-05-14T01:50:14;11.60;84.30
32293;DHT22;43233;48.608;8.838;2023-05-14T01:52:39;11.70;84.40
32293;DHT22;43233;48.608;8.838;2023-05-14T01:55:05;11.70;84.50
32293;DHT22;43233;48.608;8.838;2023-05-14T01:57:31;11.60;84.40
32293;DHT22;43233;48.608;8.838;2023-05-14T01:59:57;11.70;84.50
32293;DHT22;43233;48.608;8.838;2023-05-14T02:02:22;11.70;84.40
32293;DHT22;43233;48.608;8.838;2023-05-14T02:04:48;11.60;84.20
32293;DHT22;43233;48.608;8.838;2023-05-14T02:07:14;11.70;84.40
32293;DHT22;43233;48.608;8.838;2023-05-14T02:09:39;11.60;84.20
32293;DHT22;43233;48.608;8.838;2023-05-14T02:12:07;11.70;84.60
32293;DHT22;43233;48.608;8.838;2023-05-14T02:14:32;11.70;84.40
32293;DHT22;43233;48.608;8.838;2023-05-14T02:16:58;11.70;84.30
32293;DHT22;43233;48.608;8.838;2023-05-14T02:19:24;11.60;84.10
32293;DHT22;43233;48.608;8.838;2023-05-14T02:21:49;11.60;84.20
32293;DHT22;43233;48.608;8.838;2023-05-14T02:24:15;11.60;84.60
32293;DHT22;43233;48.608;8.838;2023-05-14T02:26:40;11.60;84.60
32293;DHT22;43233;48.608;8.838;2023-05-14T02:29:07;11.60;84.60
32293;DHT22;43233;48.608;8.838;2023-05-14T02:31:33;11.50;84.80
32293;DHT22;43233;48.608;8.838;2023-05-14T02:34:00;11.50;84.80
32293;DHT22;43233;48.608;8.838;2023-05-14T02:36:26;11.50;84.80
32293;DHT22;43233;48.608;8.838;2023-05-14T02:38:51;11.50;84.80
32293;DHT22;43233;48.608;8.838;2023-05-14T02:41:17;11.50;84.80
32293;DHT22;43233;48.608;8.838;2023-05-14T02:43:42;11.50;84.90
32293;DHT22;43233;48.608;8.838;2023-05-14T02:46:08;11.50;84.90
32293;DHT22;43233;48.608;8.838;2023-05-14T02:48:34;11.50;84.90
32293;DHT22;43233;48.608;8.838;2023-05-14T02:51:01;11.40;85.00
32293;DHT22;43233;48.608;8.838;2023-05-14T02:53:27;11.50;85.10
32293;DHT22;43233;48.608;8.838;2023-05-14T02:55:52;11.50;85.10
32293;DHT22;43233;48.608;8.838;2023-05-14T02:58:18;11.40;85.80
32293;DHT22;43233;48.608;8.838;2023-05-14T03:00:43;11.40;85.20
32293;DHT22;43233;48.608;8.838;2023-05-14T03:03:09;11.40;85.30
32293;DHT22;43233;48.608;8.838;2023-05-14T03:05:35;11.40;85.40
32293;DHT22;43233;48.608;8.838;2023-05-14T03:08:00;11.40;85.40
32293;DHT22;43233;48.608;8.838;2023-05-14T03:10:26;11.40;85.40
32293;DHT22;43233;48.608;8.838;2023-05-14T03:12:52;11.40;85.70
32293;DHT22;43233;48.608;8.838;2023-05-14T03:15:17;11.40;85.60
32293;DHT22;43233;48.608;8.838;2023-05-14T03:17:43;11.40;85.80
32293;DHT22;43233;48.608;8.838;2023-05-14T03:20:09;11.30;85.90
32293;DHT22;43233;48.608;8.838;2023-05-14T03:22:35;11.30;85.90
32293;DHT22;43233;48.608;8.838;2023-05-14T03:25:01;11.30;85.90
32293;DHT22;43233;48.608;8.838;2023-05-14T03:27:26;11.30;85.90
32293;DHT22;43233;48.608;8.838;2023-05-14T03:29:52;11.30;86.70
32293;DHT22;43233;48.608;8.838;2023-05-14T03:32:17;11.30;86.10
32293;DHT22;43233;48.608;8.838;2023-05-14T03:34:43;11.30;86.10
32293;DHT22;43233;48.608;8.838;2023-05-14T03:37:09;11.30;86.20
32293;DHT22;43233;48.608;8.838;2023-05-14T03:39:35;11.30;86.20
32293;DHT22;43233;48.608;8.838;2023-05-14T03:42:01;11.30;86.20
32293;DHT22;43233;48.608;8.838;2023-05-14T03:44:26;11.30;86.10
32293;DHT22;43233;48.608;8.838;2023-05-14T03:46:52;11.30;86.20
32293;DHT22;43233;48.608;8.838;2023-05-14T03:49:18;11.20;86.00
32293;DHT22;43233;48.608;8.838;2023-05-14T03:51:43;11.20;86.00
32293;DHT22;43233;48.608;8.838;2023-05-14T03:54:09;11.20;86.00
32293;DHT22;43233;48.608;8.838;2023-05-14T03:56:35;11.20;86.20
32293;DHT22;43233;48.608;8.838;2023-05-14T03:59:01;11.20;86.90
32293;DHT22;43233;48.608;8.838;2023-05-14T04:01:26;11.20;86.10
32293;DHT22;43233;48.608;8.838;2023-05-14T04:03:52;11.20;86.40
32293;DHT22;43233;48.608;8.838;2023-05-14T04:06:18;11.10;86.40
32293;DHT22;43233;48.608;8.838;2023-05-14T04:08:44;11.10;86.50
32293;DHT22;43233;48.608;8.838;2023-05-14T04:11:10;11.10;86.60
32293;DHT22;43233;48.608;8.838;2023-05-14T04:13:35;11.10;86.50
32293;DHT22;43233;48.608;8.838;2023-05-14T04:16:01;11.00;86.30
32293;DHT22;43233;48.608;8.838;2023-05-14T04:18:26;11.00;86.70
32293;DHT22;43233;48.608;8.838;2023-05-14T04:20:52;11.00;87.00
32293;DHT22;43233;48.608;8.838;2023-05-14T04:23:18;11.00;87.10
32293;DHT22;43233;48.608;8.838;2023-05-14T04:25:43;11.00;87.00
32293;DHT22;43233;48.608;8.838;2023-05-14T04:28:09;11.00;87.10
32293;DHT22;43233;48.608;8.838;2023-05-14T04:30:34;11.00;87.20
32293;DHT22;43233;48.608;8.838;2023-05-14T04:33:00;10.90;87.50
32293;DHT22;43233;48.608;8.838;2023-05-14T04:35:25;11.00;87.40
32293;DHT22;43233;48.608;8.838;2023-05-14T04:37:51;11.00;87.50
32293;DHT22;43233;48.608;8.838;2023-05-14T04:40:17;10.90;87.80
32293;DHT22;43233;48.608;8.838;2023-05-14T04:42:43;10.90;87.50
32293;DHT22;43233;48.608;8.838;2023-05-14T04:45:09;10.90;87.60
32293;DHT22;43233;48.608;8.838;2023-05-14T04:47:35;11.00;87.60
32293;DHT22;43233;48.608;8.838;2023-05-14T04:50:01;10.90;87.50
32293;DHT22;43233;48.608;8.838;2023-05-14T04:52:27;10.90;87.70
32293;DHT22;43233;48.608;8.838;2023-05-14T04:54:53;10.90;87.70
32293;DHT22;43233;48.608;8.838;2023-05-14T04:57:18;10.90;87.70
32293;DHT22;43233;48.608;8.838;2023-05-14T04:59:44;10.90;87.80
32293;DHT22;43233;48.608;8.838;2023-05-14T05:02:09;10.90;87.90
32293;DHT22;43233;48.608;8.838;2023-05-14T05:04:35;10.90;87.90
32293;DHT22;43233;48.608;8.838;2023-05-14T05:07:01;10.90;88.00
32293;DHT22;43233;48.608;8.838;2023-05-14T05:09:26;10.90;87.80
32293;DHT22;43233;48.608;8.838;2023-05-14T05:11:52;10.90;88.00
32293;DHT22;43233;48.608;8.838;2023-05-14T05:14:17;10.90;88.10
32293;DHT22;43233;48.608;8.838;2023-05-14T05:16:43;10.90;88.10
32293;DHT22;43233;48.608;8.838;2023-05-14T05:19:09;10.90;88.10
32293;DHT22;43233;48.608;8.838;2023-05-14T05:21:35;10.90;88.10
32293;DHT22;43233;48.608;8.838;2023-05-14T05:24:00;10.90;87.90
32293;DHT22;43233;48.608;8.838;2023-05-14T05:26:26;10.90;88.40
32293;DHT22;43233;48.608;8.838;2023-05-14T05:28:52;10.90;88.40
32293;DHT22;43233;48.608;8.838;2023-05-14T05:31:18;10.80;88.70
32293;DHT22;43233;48.608;8.838;2023-05-14T05:33:44;10.80;89.30
32293;DHT22;43233;48.608;8.838;2023-05-14T05:36:10;10.70;89.70
32293;DHT22;43233;48.608;8.838;2023-05-14T05:38:35;10.70;89.90
32293;DHT22;43233;48.608;8.838;2023-05-14T05:41:01;10.70;89.70
32293;DHT22;43233;48.608;8.838;2023-05-14T05:43:27;10.60;90.80
32293;DHT22;43233;48.608;8.838;2023-05-14T05:45:53;10.60;91.60
32293;DHT22;43233;48.608;8.838;2023-05-14T05:48:19;10.70;92.10
32293;DHT22;43233;48.608;8.838;2023-05-14T05:50:46;10.70;91.10
32293;DHT22;43233;48.608;8.838;2023-05-14T05:53:12;10.60;91.70
32293;DHT22;43233;48.608;8.838;2023-05-14T05:55:39;10.60;91.80
32293;DHT22;43233;48.608;8.838;2023-05-14T05:58:04;10.60;92.50
32293;DHT22;43233;48.608;8.838;2023-05-14T06:00:30;10.70;92.20
32293;DHT22;43233;48.608;8.838;2023-05-14T06:02:56;10.70;91.60
32293;DHT22;43233;48.608;8.838;2023-05-14T06:05:22;10.80;91.20
32293;DHT22;43233;48.608;8.838;2023-05-14T06:07:48;10.80;91.30
32293;DHT22;43233;48.608;8.838;2023-05-14T06:10:13;10.90;91.10
32293;DHT22;43233;48.608;8.838;2023-05-14T06:12:39;11.00;90.50
32293;DHT22;43233;48.608;8.838;2023-05-14T06:15:05;11.00;90.00
32293;DHT22;43233;48.608;8.838;2023-05-14T06:17:31;11.00;90.00
32293;DHT22;43233;48.608;8.838;2023-05-14T06:19:56;11.10;90.40
32293;DHT22;43233;48.608;8.838;2023-05-14T06:22:22;11.20;90.00
32293;DHT22;43233;48.608;8.838;2023-05-14T06:24:47;11.30;89.60
32293;DHT22;43233;48.608;8.838;2023-05-14T06:27:13;11.30;89.50
32293;DHT22;43233;48.608;8.838;2023-05-14T06:29:39;11.40;89.10
32293;DHT22;43233;48.608;8.838;2023-05-14T06:32:05;11.50;88.80
32293;DHT22;43233;48.608;8.838;2023-05-14T06:34:31;11.50;88.40
32293;DHT22;43233;48.608;8.838;2023-05-14T06:36:56;11.60;88.20
32293;DHT22;43233;48.608;8.838;2023-05-14T06:39:22;11.60;87.70
32293;DHT22;43233;48.608;8.838;2023-05-14T06:41:48;11.70;87.50
32293;DHT22;43233;48.608;8.838;2023-05-14T06:44:17;11.80;87.00
32293;DHT22;43233;48.608;8.838;2023-05-14T06:46:42;11.80;86.10
32293;DHT22;43233;48.608;8.838;2023-05-14T06:49:08;11.80;87.30
32293;DHT22;43233;48.608;8.838;2023-05-14T06:51:34;11.80;86.50
32293;DHT22;43233;48.608;8.838;2023-05-14T06:53:59;11.90;86.70
32293;DHT22;43233;48.608;8.838;2023-05-14T06:56:25;11.90;86.80
32293;DHT22;43233;48.608;8.838;2023-05-14T06:58:50;12.00;86.80
32293;DHT22;43233;48.608;8.838;2023-05-14T07:01:16;11.90;86.70
32293;DHT22;43233;48.608;8.838;2023-05-14T07:03:42;11.90;87.10
32293;DHT22;43233;48.608;8.838;2023-05-14T07:06:07;12.00;86.10
32293;DHT22;43233;48.608;8.838;2023-05-14T07:08:33;12.00;86.20
32293;DHT22;43233;48.608;8.838;2023-05-14T07:10:58;12.00;85.80
32293;DHT22;43233;48.608;8.838;2023-05-14T07:13:25;12.00;85.80
32293;DHT22;43233;48.608;8.838;2023-05-14T07:15:51;12.00;86.00
32293;DHT22;43233;48.608;8.838;2023-05-14T07:18:17;12.00;85.80
32293;DHT22;43233;48.608;8.838;2023-05-14T07:20:43;12.10;85.90
32293;DHT22;43233;48.608;8.838;2023-05-14T07:23:08;12.10;85.70
32293;DHT22;43233;48.608;8.838;2023-05-14T07:25:34;12.20;85.50
32293;DHT22;43233;48.608;8.838;2023-05-14T07:27:59;12.20;84.80
32293;DHT22;43233;48.608;8.838;2023-05-14T07:30:25;12.20;84.90
32293;DHT22;43233;48.608;8.838;2023-05-14T07:32:51;12.20;84.50
32293;DHT22;43233;48.608;8.838;2023-05-14T07:35:16;12.30;84.00
32293;DHT22;43233;48.608;8.838;2023-05-14T07:37:42;12.30;83.80
32293;DHT22;43233;48.608;8.838;2023-05-14T07:40:08;12.30;84.20
32293;DHT22;43233;48.608;8.838;2023-05-14T07:42:34;12.40;84.00
32293;DHT22;43233;48.608;8.838;2023-05-14T07:45:00;12.40;83.50
32293;DHT22;43233;48.608;8.838;2023-05-14T07:47:25;12.40;83.30
32293;DHT22;43233;48.608;8.838;2023-05-14T07:49:55;12.40;82.60
32293;DHT22;43233;48.608;8.838;2023-05-14T07:52:21;12.40;82.60
32293;DHT22;43233;48.608;8.838;2023-05-14T07:54:47;12.50;82.50
32293;DHT22;43233;48.608;8.838;2023-05-14T07:57:12;12.50;82.20
32293;DHT22;43233;48.608;8.838;2023-05-14T07:59:38;12.50;82.60
32293;DHT22;43233;48.608;8.838;2023-05-14T08:02:03;12.50;83.20
32293;DHT22;43233;48.608;8.838;2023-05-14T08:04:29;12.50;83.30
32293;DHT22;43233;48.608;8.838;2023-05-14T08:06:55;12.60;83.20
32293;DHT22;43233;48.608;8.838;2023-05-14T08:09:22;12.60;83.10
32293;DHT22;43233;48.608;8.838;2023-05-14T08:11:48;12.60;83.30
32293;DHT22;43233;48.608;8.838;2023-05-14T08:14:13;12.50;82.70
32293;DHT22;43233;48.608;8.838;2023-05-14T08:16:39;12.50;83.50
32293;DHT22;43233;48.608;8.838;2023-05-14T08:19:04;12.60;83.40
32293;DHT22;43233;48.608;8.838;2023-05-14T08:21:30;12.60;83.40
32293;DHT22;43233;48.608;8.838;2023-05-14T08:23:57;12.70;83.40
32293;DHT22;43233;48.608;8.838;2023-05-14T08:26:22;12.70;83.20
32293;DHT22;43233;48.608;8.838;2023-05-14T08:28:48;12.70;81.60
32293;DHT22;43233;48.608;8.838;2023-05-14T08:31:13;12.60;80.80
32293;DHT22;43233;48.608;8.838;2023-05-14T08:33:39;12.60;82.10
32293;DHT22;43233;48.608;8.838;2023-05-14T08:36:05;12.60;82.60
32293;DHT22;43233;48.608;8.838;2023-05-14T08:38:32;12.70;82.90
32293;DHT22;43233;48.608;8.838;2023-05-14T08:40:58;12.80;83.00
32293;DHT22;43233;48.608;8.838;2023-05-14T08:44:05;12.90;83.00
32293;DHT22;43233;48.608;8.838;2023-05-14T08:46:32;13.00;81.80
32293;DHT22;43233;48.608;8.838;2023-05-14T08:51:48;13.00;82.20
32293;DHT22;43233;48.608;8.838;2023-05-14T08:54:17;13.00;80.80
32293;DHT22;43233;48.608;8.838;2023-05-14T08:56:44;13.10;82.10
32293;DHT22;43233;48.608;8.838;2023-05-14T08:59:11;13.20;82.30
32293;DHT22;43233;48.608;8.838;2023-05-14T09:01:37;13.40;82.00
32293;DHT22;43233;48.608;8.838;2023-05-14T09:04:07;13.50;80.90
32293;DHT22;43233;48.608;8.838;2023-05-14T09:06:36;13.60;80.80
32293;DHT22;43233;48.608;8.838;2023-05-14T09:09:04;13.70;79.90
32293;DHT22;43233;48.608;8.838;2023-05-14T09:11:30;13.90;79.30
32293;DHT22;43233;48.608;8.838;2023-05-14T09:13:56;14.00;76.90
32293;DHT22;43233;48.608;8.838;2023-05-14T09:16:23;14.00;76.20
32293;DHT22;43233;48.608;8.838;2023-05-14T09:18:50;14.10;75.50
32293;DHT22;43233;48.608;8.838;2023-05-14T09:21:16;14.20;76.30
32293;DHT22;43233;48.608;8.838;2023-05-14T09:23:43;14.20;76.00
32293;DHT22;43233;48.608;8.838;2023-05-14T09:26:10;14.30;76.50
32293;DHT22;43233;48.608;8.838;2023-05-14T09:28:39;14.30;76.30
32293;DHT22;43233;48.608;8.838;2023-05-14T09:31:05;14.30;75.80
32293;DHT22;43233;48.608;8.838;2023-05-14T09:33:31;14.40;75.60
32293;DHT22;43233;48.608;8.838;2023-05-14T09:36:00;14.30;73.30
32293;DHT22;43233;48.608;8.838;2023-05-14T09:38:30;14.30;76.20
32293;DHT22;43233;48.608;8.838;2023-05-14T09:40:57;14.40;75.50
32293;DHT22;43233;48.608;8.838;2023-05-14T09:43:23;14.60;74.10
32293;DHT22;43233;48.608;8.838;2023-05-14T09:45:49;14.70;74.60
32293;DHT22;43233;48.608;8.838;2023-05-14T09:48:15;14.70;72.90
32293;DHT22;43233;48.608;8.838;2023-05-14T09:50:42;14.90;73.60
32293;DHT22;43233;48.608;8.838;2023-05-14T09:53:09;15.10;72.30
32293;DHT22;43233;48.608;8.838;2023-05-14T09:55:35;15.20;70.10
32293;DHT22;43233;48.608;8.838;2023-05-14T09:58:01;15.30;70.60
32293;DHT22;43233;48.608;8.838;2023-05-14T10:00:28;15.50;70.80
32293;DHT22;43233;48.608;8.838;2023-05-14T10:02:54;15.50;65.30
32293;DHT22;43233;48.608;8.838;2023-05-14T10:05:22;15.60;64.70
32293;DHT22;43233;48.608;8.838;2023-05-14T10:07:48;15.60;66.60
32293;DHT22;43233;48.608;8.838;2023-05-14T10:10:18;15.60;65.20
32293;DHT22;43233;48.608;8.838;2023-05-14T10:13:10;15.70;63.20
32293;DHT22;43233;48.608;8.838;2023-05-14T10:15:53;15.80;65.30
32293;DHT22;43233;48.608;8.838;2023-05-14T10:18:22;15.90;61.50
32293;DHT22;43233;48.608;8.838;2023-05-14T10:21:02;16.10;62.00
32293;DHT22;43233;48.608;8.838;2023-05-14T10:23:28;16.20;61.30
32293;DHT22;43233;48.608;8.838;2023-05-14T10:25:55;16.30;61.80
32293;DHT22;43233;48.608;8.838;2023-05-14T10:28:21;16.30;60.30
32293;DHT22;43233;48.608;8.838;2023-05-14T10:30:46;16.40;60.80
32293;DHT22;43233;48.608;8.838;2023-05-14T10:33:14;16.50;58.30
32293;DHT22;43233;48.608;8.838;2023-05-14T10:36:00;16.50;60.50
32293;DHT22;43233;48.608;8.838;2023-05-14T10:38:34;16.60;58.80
32293;DHT22;43233;48.608;8.838;2023-05-14T10:41:01;16.60;60.10
32293;DHT22;43233;48.608;8.838;2023-05-14T10:43:28;16.60;60.60
32293;DHT22;43233;48.608;8.838;2023-05-14T10:45:56;16.50;63.70
32293;DHT22;43233;48.608;8.838;2023-05-14T10:48:22;16.30;67.60
32293;DHT22;43233;48.608;8.838;2023-05-14T10:50:50;16.20;68.30
32293;DHT22;43233;48.608;8.838;2023-05-14T10:53:16;16.10;69.50
32293;DHT22;43233;48.608;8.838;2023-05-14T10:55:42;16.00;70.80
32293;DHT22;43233;48.608;8.838;2023-05-14T10:58:11;15.90;71.70
32293;DHT22;43233;48.608;8.838;2023-05-14T11:00:38;15.80;72.00
32293;DHT22;43233;48.608;8.838;2023-05-14T11:03:05;15.70;71.10
32293;DHT22;43233;48.608;8.838;2023-05-14T11:05:31;15.70;70.20
32293;DHT22;43233;48.608;8.838;2023-05-14T11:07:58;15.60;68.40
32293;DHT22;43233;48.608;8.838;2023-05-14T11:10:25;15.50;68.70
32293;DHT22;43233;48.608;8.838;2023-05-14T11:12:55;15.40;66.90
32293;DHT22;43233;48.608;8.838;2023-05-14T11:15:23;15.30;66.10
32293;DHT22;43233;48.608;8.838;2023-05-14T11:17:50;15.30;67.70
32293;DHT22;43233;48.608;8.838;2023-05-14T11:20:17;15.10;69.60
32293;DHT22;43233;48.608;8.838;2023-05-14T11:22:44;15.00;69.40
32293;DHT22;43233;48.608;8.838;2023-05-14T11:25:10;15.00;69.40
32293;DHT22;43233;48.608;8.838;2023-05-14T11:27:40;15.00;71.70
32293;DHT22;43233;48.608;8.838;2023-05-14T11:30:16;15.00;71.90
32293;DHT22;43233;48.608;8.838;2023-05-14T11:32:44;15.10;70.40
32293;DHT22;43233;48.608;8.838;2023-05-14T11:35:10;15.00;70.00
32293;DHT22;43233;48.608;8.838;2023-05-14T11:37:35;15.00;70.50
32293;DHT22;43233;48.608;8.838;2023-05-14T11:40:01;15.00;74.00
32293;DHT22;43233;48.608;8.838;2023-05-14T11:42:27;15.10;73.10
32293;DHT22;43233;48.608;8.838;2023-05-14T11:44:52;15.10;71.70
32293;DHT22;43233;48.608;8.838;2023-05-14T11:47:20;15.20;71.60
32293;DHT22;43233;48.608;8.838;2023-05-14T11:49:46;15.30;72.50
32293;DHT22;43233;48.608;8.838;2023-05-14T11:52:14;15.40;71.20
32293;DHT22;43233;48.608;8.838;2023-05-14T11:54:41;15.40;68.80
32293;DHT22;43233;48.608;8.838;2023-05-14T11:57:12;15.50;74.10
32293;DHT22;43233;48.608;8.838;2023-05-14T11:59:38;15.60;73.20
32293;DHT22;43233;48.608;8.838;2023-05-14T12:02:07;15.70;65.30
32293;DHT22;43233;48.608;8.838;2023-05-14T12:04:32;15.70;69.40
32293;DHT22;43233;48.608;8.838;2023-05-14T12:06:59;15.80;68.50
32293;DHT22;43233;48.608;8.838;2023-05-14T12:09:35;15.90;71.30
32293;DHT22;43233;48.608;8.838;2023-05-14T12:12:07;16.20;69.90
32293;DHT22;43233;48.608;8.838;2023-05-14T12:14:39;16.40;71.70
32293;DHT22;43233;48.608;8.838;2023-05-14T12:17:17;16.70;70.50
32293;DHT22;43233;48.608;8.838;2023-05-14T12:19:44;16.90;70.00
32293;DHT22;43233;48.608;8.838;2023-05-14T12:22:11;17.20;66.10
32293;DHT22;43233;48.608;8.838;2023-05-14T12:24:38;17.40;61.00
32293;DHT22;43233;48.608;8.838;2023-05-14T12:27:04;17.50;63.80
32293;DHT22;43233;48.608;8.838;2023-05-14T12:29:33;17.60;63.80
32293;DHT22;43233;48.608;8.838;2023-05-14T12:31:59;17.50;63.70
32293;DHT22;43233;48.608;8.838;2023-05-14T12:34:25;17.40;62.10
32293;DHT22;43233;48.608;8.838;2023-05-14T12:36:50;17.30;62.00
32293;DHT22;43233;48.608;8.838;2023-05-14T12:39:16;17.20;61.50
32293;DHT22;43233;48.608;8.838;2023-05-14T12:41:42;17.20;64.80
32293;DHT22;43233;48.608;8.838;2023-05-14T12:44:08;17.30;63.20
32293;DHT22;43233;48.608;8.838;2023-05-14T12:46:33;17.40;63.50
32293;DHT22;43233;48.608;8.838;2023-05-14T12:49:00;17.50;60.20
32293;DHT22;43233;48.608;8.838;2023-05-14T12:51:25;17.50;59.00
32293;DHT22;43233;48.608;8.838;2023-05-14T12:53:51;17.40;59.20
32293;DHT22;43233;48.608;8.838;2023-05-14T12:56:18;17.40;59.60
32293;DHT22;43233;48.608;8.838;2023-05-14T12:58:44;17.40;59.40
32293;DHT22;43233;48.608;8.838;2023-05-14T13:01:11;17.40;60.20
32293;DHT22;43233;48.608;8.838;2023-05-14T13:03:36;17.40;60.00
32293;DHT22;43233;48.608;8.838;2023-05-14T13:06:02;17.30;59.60
32293;DHT22;43233;48.608;8.838;2023-05-14T13:08:28;17.20;61.10
32293;DHT22;43233;48.608;8.838;2023-05-14T13:10:54;17.10;60.50
32293;DHT22;43233;48.608;8.838;2023-05-14T13:13:20;17.00;60.00
32293;DHT22;43233;48.608;8.838;2023-05-14T13:15:46;17.00;60.50
32293;DHT22;43233;48.608;8.838;2023-05-14T13:18:12;16.90;60.70
32293;DHT22;43233;48.608;8.838;2023-05-14T13:20:38;16.90;62.40
32293;DHT22;43233;48.608;8.838;2023-05-14T13:23:04;16.90;62.30
32293;DHT22;43233;48.608;8.838;2023-05-14T13:25:29;16.80;62.50
32293;DHT22;43233;48.608;8.838;2023-05-14T13:27:55;16.60;63.00
32293;DHT22;43233;48.608;8.838;2023-05-14T13:30:21;16.60;64.10
32293;DHT22;43233;48.608;8.838;2023-05-14T13:32:46;16.60;66.40
32293;DHT22;43233;48.608;8.838;2023-05-14T13:35:12;16.50;68.90
32293;DHT22;43233;48.608;8.838;2023-05-14T13:37:38;16.50;68.40
32293;DHT22;43233;48.608;8.838;2023-05-14T13:40:05;16.50;70.10
32293;DHT22;43233;48.608;8.838;2023-05-14T13:42:33;16.50;66.60
32293;DHT22;43233;48.608;8.838;2023-05-14T13:44:59;16.50;65.80
32293;DHT22;43233;48.608;8.838;2023-05-14T13:47:25;16.40;66.20
32293;DHT22;43233;48.608;8.838;2023-05-14T13:49:51;16.40;66.30
32293;DHT22;43233;48.608;8.838;2023-05-14T13:52:17;16.40;65.90
32293;DHT22;43233;48.608;8.838;2023-05-14T13:54:43;16.50;64.00
32293;DHT22;43233;48.608;8.838;2023-05-14T13:57:09;16.40;62.50
32293;DHT22;43233;48.608;8.838;2023-05-14T13:59:34;16.30;64.20
32293;DHT22;43233;48.608;8.838;2023-05-14T14:02:01;16.20;65.90
32293;DHT22;43233;48.608;8.838;2023-05-14T14:04:26;16.10;67.60
32293;DHT22;43233;48.608;8.838;2023-05-14T14:06:54;16.00;67.80
32293;DHT22;43233;48.608;8.838;2023-05-14T14:09:20;15.90;68.30
32293;DHT22;43233;48.608;8.838;2023-05-14T14:11:46;15.90;68.90
32293;DHT22;43233;48.608;8.838;2023-05-14T14:14:11;15.80;70.60
32293;DHT22;43233;48.608;8.838;2023-05-14T14:16:37;15.70;70.10
32293;DHT22;43233;48.608;8.838;2023-05-14T14:19:03;15.60;69.60
32293;DHT22;43233;48.608;8.838;2023-05-14T14:21:29;15.50;69.80
32293;DHT22;43233;48.608;8.838;2023-05-14T14:23:56;15.40;69.80
32293;DHT22;43233;48.608;8.838;2023-05-14T14:26:21;15.50;71.60
32293;DHT22;43233;48.608;8.838;2023-05-14T14:28:47;15.50;70.70
32293;DHT22;43233;48.608;8.838;2023-05-14T14:31:13;15.40;69.10
32293;DHT22;43233;48.608;8.838;2023-05-14T14:33:39;15.50;68.70
32293;DHT22;43233;48.608;8.838;2023-05-14T14:36:05;15.50;67.10
32293;DHT22;43233;48.608;8.838;2023-05-14T14:38:30;15.50;67.30
32293;DHT22;43233;48.608;8.838;2023-05-14T14:40:56;15.60;67.70
32293;DHT22;43233;48.608;8.838;2023-05-14T14:43:23;15.80;63.00
32293;DHT22;43233;48.608;8.838;2023-05-14T14:45:48;15.90;62.70
32293;DHT22;43233;48.608;8.838;2023-05-14T14:50:52;15.80;59.60
32293;DHT22;43233;48.608;8.838;2023-05-14T14:53:19;15.70;58.30
32293;DHT22;43233;48.608;8.838;2023-05-14T14:55:45;15.80;60.00
32293;DHT22;43233;48.608;8.838;2023-05-14T14:58:11;15.80;60.70
32293;DHT22;43233;48.608;8.838;2023-05-14T15:00:37;16.00;60.60
32293;DHT22;43233;48.608;8.838;2023-05-14T15:03:02;16.10;62.00
32293;DHT22;43233;48.608;8.838;2023-05-14T15:05:28;16.20;63.10
32293;DHT22;43233;48.608;8.838;2023-05-14T15:07:54;16.20;61.60
32293;DHT22;43233;48.608;8.838;2023-05-14T15:10:20;16.20;61.40
32293;DHT22;43233;48.608;8.838;2023-05-14T15:12:45;16.20;63.70
32293;DHT22;43233;48.608;8.838;2023-05-14T15:15:11;16.40;65.40
32293;DHT22;43233;48.608;8.838;2023-05-14T15:17:36;16.50;64.70
32293;DHT22;43233;48.608;8.838;2023-05-14T15:20:02;16.70;63.00
32293;DHT22;43233;48.608;8.838;2023-05-14T15:22:27;16.70;63.20
32293;DHT22;43233;48.608;8.838;2023-05-14T15:24:53;16.80;61.90
32293;DHT22;43233;48.608;8.838;2023-05-14T15:27:19;16.90;62.70
32293;DHT22;43233;48.608;8.838;2023-05-14T15:29:44;17.00;62.30
32293;DHT22;43233;48.608;8.838;2023-05-14T15:32:10;17.00;64.20
32293;DHT22;43233;48.608;8.838;2023-05-14T15:34:36;17.00;64.90
32293;DHT22;43233;48.608;8.838;2023-05-14T15:37:01;17.00;66.30
32293;DHT22;43233;48.608;8.838;2023-05-14T15:39:27;16.90;62.70